createdAt,value
2018-09-23T00:02:15.462Z,20.80
2018-09-23T00:04:45.717Z,20.89
2018-09-23T00:07:15.885Z,20.88
2018-09-23T00:09:46.619Z,20.86
2018-09-23T00:12:16.603Z,20.86
2018-09-23T00:14:47.567Z,20.89
2018-09-23T00:17:18.422Z,20.89
2018-09-23T00:19:49.310Z,20.82
2018-09-23T00:22:19.547Z,20.81
2018-09-23T00:24:49.547Z,20.76
2018-09-23T00:27:19.797Z,20.78
2018-09-23T00:29:51.256Z,20.84
2018-09-23T00:32:23.900Z,20.90
2018-09-23T00:34:54.112Z,20.94
2018-09-23T00:37:24.305Z,20.92
2018-09-23T00:39:55.445Z,20.90
2018-09-23T00:42:25.823Z,20.91
2018-09-23T00:44:55.978Z,20.91
2018-09-23T00:47:26.026Z,20.99
2018-09-23T00:49:56.081Z,21.03
2018-09-23T00:52:27.095Z,21.01
2018-09-23T00:54:57.078Z,20.98
2018-09-23T00:57:27.311Z,20.88
2018-09-23T00:59:58.553Z,20.81
2018-09-23T01:02:28.852Z,20.74
2018-09-23T01:04:59.106Z,20.68
2018-09-23T01:07:32.419Z,20.64
2018-09-23T01:10:03.325Z,20.57
2018-09-23T01:12:33.533Z,20.46
2018-09-23T01:15:05.392Z,20.37
2018-09-23T01:17:35.432Z,20.24
2018-09-23T01:20:05.739Z,20.08
2018-09-23T01:22:36.160Z,20.04
2018-09-23T01:25:06.223Z,20.05
2018-09-23T01:27:36.422Z,20.19
2018-09-23T01:30:08.294Z,20.38
2018-09-23T01:32:38.590Z,20.42
2018-09-23T01:35:08.651Z,20.59
2018-09-23T01:37:38.699Z,20.66
2018-09-23T01:40:09.242Z,20.62
2018-09-23T01:42:39.948Z,20.74
2018-09-23T01:45:09.985Z,20.75
2018-09-23T01:47:40.067Z,20.81
2018-09-23T01:50:11.293Z,20.91
2018-09-23T01:52:42.106Z,20.84
2018-09-23T01:55:12.848Z,20.94
2018-09-23T01:57:42.972Z,20.95
2018-09-23T02:00:13.745Z,20.97
2018-09-23T02:02:43.749Z,21.05
2018-09-23T02:05:13.861Z,21.17
2018-09-23T02:07:44.163Z,21.20
2018-09-23T02:10:15.079Z,21.17
2018-09-23T02:12:45.324Z,21.16
2018-09-23T02:15:16.999Z,21.19
2018-09-23T02:17:47.295Z,21.23
2018-09-23T02:20:17.339Z,21.30
2018-09-23T02:25:16.776Z,21.38
2018-09-23T02:27:47.551Z,21.37
2018-09-23T02:30:17.752Z,21.41
2018-09-23T02:32:47.788Z,21.39
2018-09-23T02:35:21.229Z,21.26
2018-09-23T02:37:51.664Z,21.17
2018-09-23T02:40:22.473Z,21.12
2018-09-23T02:42:52.738Z,21.11
2018-09-23T02:45:24.038Z,21.03
2018-09-23T02:47:54.248Z,20.96
2018-09-23T02:50:24.312Z,20.87
2018-09-23T02:52:54.324Z,20.93
2018-09-23T02:55:24.535Z,20.96
2018-09-23T02:57:54.750Z,21.01
2018-09-23T03:00:25.452Z,21.10
2018-09-23T03:02:55.613Z,21.14
2018-09-23T03:05:25.748Z,21.18
2018-09-23T03:07:56.068Z,21.19
2018-09-23T03:10:26.962Z,21.26
2018-09-23T03:12:57.236Z,21.30
2018-09-23T03:15:28.076Z,21.33
2018-09-23T03:17:58.883Z,21.38
2018-09-23T03:20:30.872Z,21.44
2018-09-23T03:23:01.016Z,21.48
2018-09-23T03:25:31.376Z,21.56
2018-09-23T03:28:03.117Z,21.61
2018-09-23T03:30:33.255Z,21.63
2018-09-23T03:33:03.516Z,21.61
2018-09-23T03:35:33.736Z,21.64
2018-09-23T03:38:04.021Z,21.58
2018-09-23T03:40:34.200Z,21.51
2018-09-23T03:43:04.696Z,21.54
2018-09-23T03:45:34.915Z,21.45
2018-09-23T03:48:05.031Z,21.42
2018-09-23T03:50:35.157Z,21.43
2018-09-23T03:53:05.099Z,21.31
2018-09-23T03:55:35.644Z,21.30
2018-09-23T03:58:05.795Z,21.26
2018-09-23T04:00:37.387Z,21.13
2018-09-23T04:03:07.966Z,20.98
2018-09-23T04:05:38.330Z,20.96
2018-09-23T04:08:08.912Z,20.94
2018-09-23T04:10:40.076Z,20.95
2018-09-23T04:13:10.198Z,21.00
2018-09-23T04:15:40.549Z,20.95
2018-09-23T04:18:10.608Z,20.99
2018-09-23T04:20:40.589Z,20.85
2018-09-23T04:23:10.560Z,21.04
2018-09-23T04:25:40.440Z,20.13
2018-09-23T04:28:10.672Z,21.07
2018-09-23T04:30:40.823Z,20.98
2018-09-23T04:33:11.168Z,20.98
2018-09-23T04:35:41.526Z,20.82
2018-09-23T04:38:11.708Z,20.73
2018-09-23T04:40:41.833Z,20.70
2018-09-23T04:43:12.011Z,20.57
2018-09-23T04:45:43.487Z,20.72
2018-09-23T04:48:13.616Z,20.83
2018-09-23T04:50:45.652Z,20.88
2018-09-23T04:53:15.750Z,21.09
2018-09-23T04:55:46.387Z,21.14
2018-09-23T04:58:17.166Z,21.22
2018-09-23T05:00:47.288Z,21.18
2018-09-23T05:03:17.693Z,21.24
2018-09-23T05:05:47.902Z,21.19
2018-09-23T05:08:18.000Z,21.21
2018-09-23T05:10:48.315Z,21.11
2018-09-23T05:13:18.795Z,21.10
2018-09-23T05:15:49.010Z,21.24
2018-09-23T05:18:19.288Z,21.30
2018-09-23T05:20:49.505Z,21.46
2018-09-23T05:23:19.526Z,21.42
2018-09-23T05:25:49.912Z,21.30
2018-09-23T05:28:21.375Z,21.30
2018-09-23T05:30:51.768Z,21.33
2018-09-23T05:33:21.920Z,21.21
2018-09-23T05:35:52.142Z,21.13
2018-09-23T05:38:22.525Z,21.08
2018-09-23T05:40:52.593Z,21.01
2018-09-23T05:43:22.857Z,20.97
2018-09-23T05:45:53.100Z,21.08
2018-09-23T05:48:24.529Z,21.12
2018-09-23T05:50:54.554Z,20.98
2018-09-23T05:53:25.430Z,20.96
2018-09-23T05:55:56.291Z,20.84
2018-09-23T05:58:27.369Z,20.74
2018-09-23T06:00:57.783Z,20.70
2018-09-23T06:03:27.811Z,20.78
2018-09-23T06:05:57.865Z,21.36
2018-09-23T06:08:27.934Z,21.86
2018-09-23T06:10:58.038Z,22.82
2018-09-23T06:13:28.280Z,23.73
2018-09-23T06:15:58.313Z,24.65
2018-09-23T06:18:29.779Z,24.30
2018-09-23T06:21:00.067Z,23.88
2018-09-23T06:23:30.309Z,24.14
2018-09-23T06:26:01.612Z,24.39
2018-09-23T06:28:31.812Z,25.61
2018-09-23T06:31:01.892Z,25.54
2018-09-23T06:33:31.972Z,25.80
2018-09-23T06:36:02.223Z,25.14
2018-09-23T06:38:33.374Z,24.79
2018-09-23T06:41:03.463Z,24.49
2018-09-23T06:43:35.293Z,23.89
2018-09-23T06:46:05.330Z,24.15
2018-09-23T06:48:35.537Z,24.35
2018-09-23T06:51:06.312Z,24.47
2018-09-23T06:53:36.916Z,24.27
2018-09-23T06:56:07.097Z,24.40
2018-09-23T06:58:37.456Z,24.61
2018-09-23T07:01:08.667Z,23.91
2018-09-23T07:03:39.436Z,23.54
2018-09-23T07:06:09.580Z,22.97
2018-09-23T07:08:39.893Z,22.76
2018-09-23T07:11:10.985Z,23.09
2018-09-23T07:13:41.186Z,23.08
2018-09-23T07:16:11.845Z,23.14
2018-09-23T07:18:41.901Z,22.80
2018-09-23T07:21:12.396Z,22.59
2018-09-23T07:23:42.420Z,22.63
2018-09-23T07:26:13.489Z,22.63
2018-09-23T07:28:43.615Z,22.76
2018-09-23T07:31:14.471Z,22.54
2018-09-23T07:33:45.539Z,22.64
2018-09-23T07:36:15.696Z,22.60
2018-09-23T07:38:47.018Z,22.67
2018-09-23T07:41:17.113Z,22.51
2018-09-23T07:43:48.222Z,22.38
2018-09-23T07:46:19.072Z,22.53
2018-09-23T07:48:50.901Z,22.62
2018-09-23T07:51:20.901Z,22.86
2018-09-23T07:53:51.432Z,22.92
2018-09-23T07:56:22.236Z,22.99
2018-09-23T07:58:53.563Z,22.89
2018-09-23T08:01:23.667Z,22.70
2018-09-23T08:03:53.958Z,23.18
2018-09-23T08:06:24.087Z,23.60
2018-09-23T08:08:54.075Z,23.48
2018-09-23T08:11:24.217Z,23.40
2018-09-23T08:13:54.540Z,23.33
2018-09-23T08:16:24.683Z,23.21
2018-09-23T08:18:57.582Z,23.06
2018-09-23T08:21:27.599Z,22.98
2018-09-23T08:23:58.252Z,23.19
2018-09-23T08:26:29.321Z,23.26
2018-09-23T08:28:59.314Z,23.26
2018-09-23T08:31:29.688Z,23.37
2018-09-23T08:33:59.844Z,23.70
2018-09-23T08:36:30.326Z,23.54
2018-09-23T08:39:00.577Z,23.48
2018-09-23T08:41:30.563Z,23.44
2018-09-23T08:44:00.746Z,23.47
2018-09-23T08:46:31.651Z,23.46
2018-09-23T08:49:01.776Z,23.59
2018-09-23T08:51:31.972Z,23.35
2018-09-23T08:54:02.103Z,23.03
2018-09-23T08:56:32.109Z,23.07
2018-09-23T08:59:03.757Z,23.30
2018-09-23T09:01:33.836Z,23.42
2018-09-23T09:04:03.837Z,23.36
2018-09-23T09:06:34.855Z,23.33
2018-09-23T09:09:05.544Z,23.34
2018-09-23T09:11:35.921Z,23.14
2018-09-23T09:14:07.309Z,23.27
2018-09-23T09:16:37.529Z,23.45
2018-09-23T09:19:07.731Z,23.25
2018-09-23T09:21:38.125Z,23.16
2018-09-23T09:24:08.183Z,23.09
2018-09-23T09:26:40.447Z,23.09
2018-09-23T09:29:10.714Z,22.98
2018-09-23T09:31:42.514Z,23.12
2018-09-23T09:34:12.700Z,23.18
2018-09-23T09:36:43.270Z,23.41
2018-09-23T09:39:13.474Z,23.52
2018-09-23T09:41:43.900Z,23.58
2018-09-23T09:44:15.074Z,23.74
2018-09-23T09:46:45.512Z,23.66
2018-09-23T09:49:16.498Z,23.74
2018-09-23T09:51:47.653Z,23.64
2018-09-23T09:54:17.758Z,23.59
2018-09-23T09:56:48.827Z,23.61
2018-09-23T09:59:18.935Z,23.79
2018-09-23T10:01:49.097Z,23.95
2018-09-23T10:04:19.355Z,23.79
2018-09-23T10:06:49.630Z,23.45
2018-09-23T10:09:19.792Z,23.36
2018-09-23T10:11:49.923Z,23.31
2018-09-23T10:14:20.129Z,23.42
2018-09-23T10:16:50.345Z,23.50
2018-09-23T10:19:22.035Z,23.59
2018-09-23T10:21:54.262Z,23.72
2018-09-23T10:24:24.556Z,23.59
2018-09-23T10:26:54.738Z,23.81
2018-09-23T10:29:24.993Z,24.09
2018-09-23T10:31:55.409Z,24.17
2018-09-23T10:34:25.576Z,24.33
2018-09-23T10:36:56.319Z,24.42
2018-09-23T10:39:26.572Z,24.47
2018-09-23T10:41:56.696Z,24.55
2018-09-23T10:44:26.973Z,24.41
2018-09-23T10:46:57.251Z,24.59
2018-09-23T10:49:27.432Z,24.56
2018-09-23T10:51:57.746Z,24.50
2018-09-23T10:54:27.665Z,24.47
2018-09-23T10:56:57.974Z,24.69
2018-09-23T10:59:28.179Z,24.62
2018-09-23T11:01:58.442Z,24.75
2018-09-23T11:04:28.627Z,24.68
2018-09-23T11:06:58.784Z,24.66
2018-09-23T11:09:29.015Z,24.66
2018-09-23T11:12:00.201Z,24.53
2018-09-23T11:14:31.183Z,24.52
2018-09-23T11:17:01.421Z,24.36
2018-09-23T11:19:31.480Z,24.28
2018-09-23T11:22:01.563Z,24.14
2018-09-23T11:24:31.837Z,24.16
2018-09-23T11:27:02.001Z,24.17
2018-09-23T11:29:34.059Z,24.09
2018-09-23T11:32:04.290Z,23.96
2018-09-23T11:34:34.620Z,23.61
2018-09-23T11:37:04.652Z,23.49
2018-09-23T11:39:35.368Z,23.58
2018-09-23T11:42:05.524Z,23.70
2018-09-23T11:44:37.393Z,23.76
2018-09-23T11:47:07.693Z,23.75
2018-09-23T11:49:39.205Z,23.49
2018-09-23T11:52:09.620Z,23.22
2018-09-23T11:54:39.503Z,23.45
2018-09-23T11:57:09.696Z,23.30
2018-09-23T11:59:39.938Z,23.41
2018-09-23T12:02:10.261Z,23.47
2018-09-23T12:04:40.567Z,23.46
2018-09-23T12:07:10.562Z,23.50
2018-09-23T12:09:40.757Z,23.42
2018-09-23T12:12:10.823Z,23.38
2018-09-23T12:14:41.079Z,23.07
2018-09-23T12:17:11.540Z,22.95
2018-09-23T12:19:44.542Z,22.92
2018-09-23T12:22:14.866Z,23.02
2018-09-23T12:24:45.250Z,23.14
2018-09-23T12:27:15.563Z,23.11
2018-09-23T12:29:45.897Z,23.04
2018-09-23T12:32:16.014Z,22.86
2018-09-23T12:34:46.495Z,23.00
2018-09-23T12:37:17.642Z,22.96
2018-09-23T12:39:48.447Z,23.06
2018-09-23T12:42:18.401Z,23.13
2018-09-23T12:44:48.512Z,23.16
2018-09-23T12:47:18.625Z,23.20
2018-09-23T12:49:49.100Z,22.96
2018-09-23T12:52:20.235Z,22.77
2018-09-23T12:54:51.251Z,22.75
2018-09-23T12:57:21.561Z,22.64
2018-09-23T12:59:52.532Z,22.40
2018-09-23T13:02:22.561Z,22.40
2018-09-23T13:04:52.776Z,22.45
2018-09-23T13:07:22.900Z,22.45
2018-09-23T13:09:53.116Z,22.51
2018-09-23T13:12:23.220Z,22.58
2018-09-23T13:14:54.679Z,22.59
2018-09-23T13:17:26.100Z,22.77
2018-09-23T13:19:57.200Z,22.64
2018-09-23T13:22:27.527Z,22.49
2018-09-23T13:24:57.772Z,22.65
2018-09-23T13:27:29.663Z,22.47
2018-09-23T13:29:59.936Z,22.46
2018-09-23T13:32:30.120Z,22.36
2018-09-23T13:35:00.351Z,22.36
2018-09-23T13:37:34.031Z,22.31
2018-09-23T13:40:04.214Z,22.18
2018-09-23T13:42:34.578Z,22.18
2018-09-23T13:45:04.695Z,22.12
2018-09-23T13:47:34.686Z,22.18
2018-09-23T13:50:05.132Z,22.06
2018-09-23T13:52:35.398Z,21.98
2018-09-23T13:55:05.835Z,22.05
2018-09-23T13:57:35.750Z,22.00
2018-09-23T14:00:05.826Z,21.96
2018-09-23T14:02:36.142Z,21.99
2018-09-23T14:05:07.460Z,22.04
2018-09-23T14:07:37.382Z,21.91
2018-09-23T14:10:07.779Z,21.84
2018-09-23T14:12:38.188Z,21.76
2018-09-23T14:15:08.284Z,21.68
2018-09-23T14:17:38.564Z,21.60
2018-09-23T14:20:09.117Z,21.54
2018-09-23T14:22:39.435Z,21.33
2018-09-23T14:25:09.927Z,21.31
2018-09-23T14:27:40.005Z,21.28
2018-09-23T14:30:11.165Z,21.15
2018-09-23T14:32:41.375Z,21.23
2018-09-23T14:35:12.684Z,21.31
2018-09-23T14:37:42.884Z,21.28
2018-09-23T14:40:12.926Z,21.33
2018-09-23T14:42:43.383Z,21.39
2018-09-23T14:45:13.881Z,21.32
2018-09-23T14:47:44.971Z,21.41
2018-09-23T14:50:18.617Z,21.23
2018-09-23T14:52:48.851Z,21.27
2018-09-23T14:55:21.687Z,21.26
2018-09-23T14:57:51.724Z,21.24
2018-09-23T15:00:23.237Z,21.07
2018-09-23T15:02:53.523Z,21.00
2018-09-23T15:05:23.473Z,20.95
2018-09-23T15:07:53.545Z,20.88
2018-09-23T15:10:23.723Z,20.82
2018-09-23T15:12:53.944Z,20.67
2018-09-23T15:15:29.868Z,20.69
2018-09-23T15:18:00.703Z,20.72
2018-09-23T15:20:31.764Z,20.63
2018-09-23T15:23:01.972Z,20.56
2018-09-23T15:25:32.402Z,20.41
2018-09-23T15:28:02.595Z,20.50
2018-09-23T15:30:32.653Z,20.38
2018-09-23T15:33:02.762Z,20.38
2018-09-23T15:35:32.981Z,20.37
2018-09-23T15:38:02.970Z,20.34
2018-09-23T15:40:34.312Z,20.28
2018-09-23T15:43:04.661Z,20.27
2018-09-23T15:45:36.057Z,20.19
2018-09-23T15:48:06.052Z,20.22
2018-09-23T15:50:36.600Z,20.35
2018-09-23T15:53:06.669Z,20.27
2018-09-23T15:55:37.042Z,20.19
2018-09-23T15:58:07.814Z,20.19
2018-09-23T16:00:40.288Z,20.17
2018-09-23T16:03:10.561Z,20.12
2018-09-23T16:05:40.865Z,20.10
2018-09-23T16:08:10.902Z,20.13
2018-09-23T16:10:41.142Z,20.20
2018-09-23T16:13:11.340Z,20.21
2018-09-23T16:15:41.666Z,20.22
2018-09-23T16:18:13.271Z,20.22
2018-09-23T16:20:43.560Z,20.24
2018-09-23T16:23:13.904Z,20.18
2018-09-23T16:25:43.989Z,20.26
2018-09-23T16:28:14.098Z,20.25
2018-09-23T16:30:44.475Z,20.19
2018-09-23T16:33:14.633Z,20.28
2018-09-23T16:35:44.580Z,20.22
2018-09-23T16:38:14.798Z,20.19
2018-09-23T16:40:45.204Z,20.24
2018-09-23T16:43:17.665Z,20.26
2018-09-23T16:45:47.690Z,20.21
2018-09-23T16:48:17.783Z,20.29
2018-09-23T16:50:48.370Z,20.29
2018-09-23T16:53:18.735Z,20.21
2018-09-23T16:55:50.707Z,20.25
2018-09-23T16:58:20.980Z,20.24
2018-09-23T17:00:51.578Z,20.23
2018-09-23T17:03:21.717Z,20.28
2018-09-23T17:05:51.855Z,20.33
2018-09-23T17:08:21.694Z,20.22
2018-09-23T17:10:52.222Z,20.29
2018-09-23T17:13:23.489Z,20.33
2018-09-23T17:15:53.588Z,20.34
2018-09-23T17:18:23.632Z,20.33
2018-09-23T17:20:55.032Z,20.35
2018-09-23T17:23:25.206Z,20.34
2018-09-23T17:25:55.676Z,20.28
2018-09-23T17:28:26.009Z,20.44
2018-09-23T17:30:56.051Z,20.43
2018-09-23T17:33:26.256Z,20.40
2018-09-23T17:35:56.514Z,20.30
2018-09-23T17:38:26.948Z,20.33
2018-09-23T17:40:57.271Z,20.37
2018-09-23T17:43:27.367Z,20.36
2018-09-23T17:45:57.626Z,20.36
2018-09-23T17:48:27.796Z,20.29
2018-09-23T17:50:57.971Z,20.32
2018-09-23T17:53:29.558Z,20.33
2018-09-23T17:56:02.552Z,20.39
2018-09-23T17:58:46.787Z,20.42
2018-09-23T18:01:16.992Z,20.44
2018-09-23T18:03:47.366Z,20.51
2018-09-23T18:06:17.771Z,20.52
2018-09-23T18:08:48.077Z,20.47
2018-09-23T18:11:18.250Z,20.37
2018-09-23T18:13:48.877Z,20.33
2018-09-23T18:16:19.054Z,20.41
2018-09-23T18:18:49.305Z,20.40
2018-09-23T18:21:19.923Z,20.37
2018-09-23T18:23:49.980Z,20.46
2018-09-23T18:26:20.140Z,20.43
2018-09-23T18:28:50.413Z,20.42
2018-09-23T18:31:21.957Z,20.36
2018-09-23T18:33:52.274Z,20.35
2018-09-23T18:36:22.507Z,20.33
2018-09-23T18:38:52.952Z,20.38
2018-09-23T18:41:23.349Z,20.38
2018-09-23T18:43:53.529Z,20.44
2018-09-23T18:46:23.602Z,20.32
2018-09-23T18:48:53.822Z,20.36
2018-09-23T18:51:23.908Z,20.34
2018-09-23T18:53:58.770Z,20.34
2018-09-23T18:56:29.079Z,20.41
2018-09-23T18:58:59.319Z,20.46
2018-09-23T19:01:29.867Z,20.36
2018-09-23T19:04:00.222Z,20.42
2018-09-23T19:06:30.419Z,20.44
2018-09-23T19:09:00.642Z,20.44
2018-09-23T19:11:30.929Z,20.45
2018-09-23T19:14:02.018Z,20.36
2018-09-23T19:16:33.721Z,20.43
2018-09-23T19:19:04.937Z,20.44
2018-09-23T19:21:35.155Z,20.35
2018-09-23T19:24:06.947Z,20.23
2018-09-23T19:26:38.596Z,20.32
2018-09-23T19:29:09.573Z,20.34
2018-09-23T19:31:39.722Z,20.21
2018-09-23T19:34:10.077Z,20.21
2018-09-23T19:36:42.186Z,20.18
2018-09-23T19:39:12.740Z,20.20
2018-09-23T19:41:42.904Z,20.30
2018-09-23T19:44:12.970Z,20.28
2018-09-23T19:46:43.134Z,20.25
2018-09-23T19:49:13.134Z,20.17
2018-09-23T19:51:43.396Z,20.29
2018-09-23T19:54:13.655Z,20.35
2018-09-23T19:56:50.677Z,20.22
2018-09-23T19:59:31.080Z,20.26
2018-09-23T20:02:01.481Z,20.30
2018-09-23T20:04:31.564Z,20.31
2018-09-23T20:07:01.836Z,20.22
2018-09-23T20:09:32.007Z,20.20
2018-09-23T20:12:03.304Z,20.32
2018-09-23T20:14:33.415Z,20.45
2018-09-23T20:17:03.562Z,20.51
2018-09-23T20:19:39.865Z,20.40
2018-09-23T20:22:11.095Z,20.37
2018-09-23T20:24:41.235Z,20.56
2018-09-23T20:27:12.929Z,20.71
2018-09-23T20:29:43.004Z,20.79
2018-09-23T20:32:13.323Z,20.82
2018-09-23T20:34:43.545Z,20.78
2018-09-23T20:37:13.938Z,20.83
2018-09-23T20:39:46.232Z,20.83
2018-09-23T20:42:16.796Z,20.83
2018-09-23T20:44:46.955Z,20.80
2018-09-23T20:47:17.118Z,20.76
2018-09-23T20:49:47.227Z,20.82
2018-09-23T20:52:18.803Z,20.75
2018-09-23T20:54:48.821Z,20.65
2018-09-23T20:57:21.423Z,20.65
2018-09-23T20:59:51.700Z,20.61
2018-09-23T21:02:22.695Z,20.81
2018-09-23T21:04:54.753Z,20.72
2018-09-23T21:07:24.937Z,20.86
2018-09-23T21:09:55.432Z,20.97
2018-09-23T21:12:29.973Z,21.02
2018-09-23T21:15:00.027Z,21.04
2018-09-23T21:17:30.418Z,21.06
2018-09-23T21:20:01.646Z,21.10
2018-09-23T21:22:32.066Z,21.14
2018-09-23T21:25:03.161Z,21.18
2018-09-23T21:27:33.584Z,21.19
2018-09-23T21:30:03.744Z,21.11
2018-09-23T21:32:33.912Z,21.18
2018-09-23T21:35:04.150Z,21.18
2018-09-23T21:37:34.431Z,21.20
2018-09-23T21:40:05.535Z,21.25
2018-09-23T21:42:37.105Z,21.14
2018-09-23T21:45:07.476Z,21.15
2018-09-23T21:47:37.820Z,21.18
2018-09-23T21:50:07.965Z,21.23
2018-09-23T21:52:38.921Z,21.30
2018-09-23T21:55:11.179Z,21.29
2018-09-23T21:57:42.154Z,21.29
2018-09-23T22:00:12.440Z,21.34
2018-09-23T22:02:43.279Z,21.20
2018-09-23T22:05:13.466Z,21.23
2018-09-23T22:07:43.700Z,21.26
2018-09-23T22:10:14.045Z,21.29
2018-09-23T22:12:44.101Z,21.24
2018-09-23T22:15:18.220Z,21.07
2018-09-23T22:17:48.358Z,21.11
2018-09-23T22:20:18.485Z,21.18
2018-09-23T22:22:48.652Z,21.25
2018-09-23T22:25:18.743Z,21.21
2018-09-23T22:27:51.665Z,21.29
2018-09-23T22:30:22.124Z,21.24
2018-09-23T22:32:53.528Z,21.35
2018-09-23T22:35:23.617Z,21.40
2018-09-23T22:37:53.906Z,21.27
2018-09-23T22:40:24.466Z,21.26
2018-09-23T22:42:54.621Z,21.24
2018-09-23T22:45:24.684Z,21.20
2018-09-23T22:47:55.118Z,21.29
2018-09-23T22:50:25.912Z,21.23
2018-09-23T22:52:56.837Z,21.24
2018-09-23T22:55:27.041Z,21.13
2018-09-23T22:57:57.116Z,21.00
2018-09-23T23:00:27.230Z,20.96
2018-09-23T23:02:57.315Z,20.88
2018-09-23T23:05:27.719Z,20.88
2018-09-23T23:07:57.730Z,20.87
2018-09-23T23:10:27.925Z,20.83
2018-09-23T23:12:58.255Z,20.87
2018-09-23T23:15:28.830Z,20.87
2018-09-23T23:17:58.842Z,20.87
2018-09-23T23:20:29.195Z,20.88
2018-09-23T23:22:59.792Z,20.96
2018-09-23T23:25:29.811Z,20.87
2018-09-23T23:27:59.921Z,20.96
2018-09-23T23:30:30.109Z,20.95
2018-09-23T23:33:01.234Z,21.03
2018-09-23T23:35:31.621Z,20.99
2018-09-23T23:38:01.620Z,20.90
2018-09-23T23:40:31.548Z,20.96
2018-09-23T23:43:01.828Z,21.08
2018-09-23T23:45:31.905Z,21.15
2018-09-23T23:48:02.260Z,21.16
2018-09-23T23:50:32.562Z,21.09
2018-09-23T23:53:04.343Z,21.13
2018-09-23T23:55:34.385Z,21.16
2018-09-23T23:58:04.467Z,21.14
